RJNY  Shizuhama Airport

Add Bookmark

Japan

Status
Operational
Latitude Longitude
34° 48' 46" N 138° 17' 52" E
34.812801 138.298004
Local (DST + 9) UTC (GMT + 9)
Aug 2, 2014 12:53 Aug 1, 2014 15:53
Sunrise-Sunset Local UTC
Begin Civil Twilight 04:28 19:28
Sunrise 04:55 19:55
Sunset 06:50 09:50
End Civil Twilight 07:18 10:18

Current Weather

METAR Observed MVFR
RJNY 011427Z 06006KT 020V110 9999 FEW005 BKN025 FEW025CB BKN160 25/23 Q1013 Fri, Aug 1, 2014 @ 14:27 UTC
(1 Hour, 26 Minutes ago)
Marginal Visual Flight Rules

Decoded METAR

Wind Visibility Clouds Conditions
060° at 6 knots (11 kph) 10 km or more
  • Few at 500' AGL
  • Broken at 2,500' AGL
  • Few at 2,500' AGL
  • Broken at 16,000' AGL
  • No significant weather
Temperatures Readings Precipitation
Current Temp 25°C (77°F)
Dewpoint 23°C (73°F)
Humidity 89%
Altimeter 29.91"Hg
Sea Level Pressure 1013mb
Field Elevation 32.81'
None Recorded

Additional weather within a 92.6km radius of RJNY

Map ICAO Location
rjns 10.2km W (259°)
RJAT 76.7km N (043°)

24 Hour Weather History

Loading
-

24 Hour Weather Graphs

Loading
-

CheckWX.com is intended as a tool to help pilots better visualize weather data. It is not intended as a substitute for an official weather briefing obtained from a Flight Service Station. CheckWX.com does not meet the FAA requirements for an official pre-flight weather briefing. Therefore, it's important that pilots still call and obtain an official FSS pre-flight weather briefing.